sensor_id;sensor_type;location;lat;lon;timestamp;P1;durP1;ratioP1;P2;durP2;ratioP2
3149;SDS011;32503;47.748;8.960;2023-08-17T00:02:06;4.60;;;4.40;;
3149;SDS011;32503;47.748;8.960;2023-08-17T00:04:33;4.90;;;4.60;;
3149;SDS011;32503;47.748;8.960;2023-08-17T00:07:00;4.27;;;3.97;;
3149;SDS011;32503;47.748;8.960;2023-08-17T00:09:28;4.37;;;4.17;;
3149;SDS011;32503;47.748;8.960;2023-08-17T00:11:55;4.50;;;4.20;;
3149;SDS011;32503;47.748;8.960;2023-08-17T00:14:23;4.20;;;4.00;;
3149;SDS011;32503;47.748;8.960;2023-08-17T00:16:51;4.37;;;4.17;;
3149;SDS011;32503;47.748;8.960;2023-08-17T00:19:18;4.73;;;4.43;;
3149;SDS011;32503;47.748;8.960;2023-08-17T00:21:45;4.07;;;3.77;;
3149;SDS011;32503;47.748;8.960;2023-08-17T00:24:12;4.00;;;3.80;;
3149;SDS011;32503;47.748;8.960;2023-08-17T00:26:39;4.63;;;4.37;;
3149;SDS011;32503;47.748;8.960;2023-08-17T00:29:06;4.50;;;4.30;;
3149;SDS011;32503;47.748;8.960;2023-08-17T00:31:34;5.20;;;4.70;;
3149;SDS011;32503;47.748;8.960;2023-08-17T00:34:02;4.00;;;3.80;;
3149;SDS011;32503;47.748;8.960;2023-08-17T00:36:29;4.40;;;4.20;;
3149;SDS011;32503;47.748;8.960;2023-08-17T00:38:56;6.83;;;6.53;;
3149;SDS011;32503;47.748;8.960;2023-08-17T00:41:23;4.50;;;4.30;;
3149;SDS011;32503;47.748;8.960;2023-08-17T00:43:50;4.73;;;4.53;;
3149;SDS011;32503;47.748;8.960;2023-08-17T00:46:17;4.70;;;4.40;;
3149;SDS011;32503;47.748;8.960;2023-08-17T00:48:48;4.63;;;4.33;;
3149;SDS011;32503;47.748;8.960;2023-08-17T00:51:15;5.37;;;5.07;;
3149;SDS011;32503;47.748;8.960;2023-08-17T00:53:45;4.60;;;4.30;;
3149;SDS011;32503;47.748;8.960;2023-08-17T00:56:13;4.87;;;4.57;;
3149;SDS011;32503;47.748;8.960;2023-08-17T00:58:40;3.90;;;3.70;;
3149;SDS011;32503;47.748;8.960;2023-08-17T01:01:08;4.20;;;4.00;;
3149;SDS011;32503;47.748;8.960;2023-08-17T01:03:35;4.47;;;4.27;;
3149;SDS011;32503;47.748;8.960;2023-08-17T01:06:04;4.80;;;4.50;;
3149;SDS011;32503;47.748;8.960;2023-08-17T01:08:32;4.37;;;4.17;;
3149;SDS011;32503;47.748;8.960;2023-08-17T01:10:59;4.97;;;4.77;;
3149;SDS011;32503;47.748;8.960;2023-08-17T01:13:49;4.87;;;4.57;;
3149;SDS011;32503;47.748;8.960;2023-08-17T01:16:26;5.20;;;4.87;;
3149;SDS011;32503;47.748;8.960;2023-08-17T01:18:57;4.73;;;4.50;;
3149;SDS011;32503;47.748;8.960;2023-08-17T01:21:29;5.00;;;4.50;;
3149;SDS011;32503;47.748;8.960;2023-08-17T01:24:08;4.97;;;4.67;;
3149;SDS011;32503;47.748;8.960;2023-08-17T01:26:37;4.60;;;4.40;;
3149;SDS011;32503;47.748;8.960;2023-08-17T01:29:04;4.90;;;4.60;;
3149;SDS011;32503;47.748;8.960;2023-08-17T01:31:35;6.13;;;4.80;;
3149;SDS011;32503;47.748;8.960;2023-08-17T01:34:10;5.23;;;4.83;;
3149;SDS011;32503;47.748;8.960;2023-08-17T01:36:46;4.63;;;4.33;;
3149;SDS011;32503;47.748;8.960;2023-08-17T01:39:19;5.03;;;4.73;;
3149;SDS011;32503;47.748;8.960;2023-08-17T01:41:54;4.83;;;4.63;;
3149;SDS011;32503;47.748;8.960;2023-08-17T01:44:23;5.30;;;5.00;;
3149;SDS011;32503;47.748;8.960;2023-08-17T01:46:51;5.73;;;5.30;;
3149;SDS011;32503;47.748;8.960;2023-08-17T01:49:18;4.33;;;4.13;;
3149;SDS011;32503;47.748;8.960;2023-08-17T01:51:45;4.50;;;4.30;;
3149;SDS011;32503;47.748;8.960;2023-08-17T01:54:12;4.87;;;4.57;;
3149;SDS011;32503;47.748;8.960;2023-08-17T01:56:41;4.60;;;4.40;;
3149;SDS011;32503;47.748;8.960;2023-08-17T01:59:08;5.03;;;4.73;;
3149;SDS011;32503;47.748;8.960;2023-08-17T02:01:35;5.40;;;5.17;;
3149;SDS011;32503;47.748;8.960;2023-08-17T02:04:03;4.87;;;4.60;;
3149;SDS011;32503;47.748;8.960;2023-08-17T02:06:30;4.80;;;4.47;;
3149;SDS011;32503;47.748;8.960;2023-08-17T02:08:57;5.80;;;5.23;;
3149;SDS011;32503;47.748;8.960;2023-08-17T02:11:25;5.50;;;5.10;;
3149;SDS011;32503;47.748;8.960;2023-08-17T02:13:53;4.93;;;4.73;;
3149;SDS011;32503;47.748;8.960;2023-08-17T02:16:21;4.77;;;4.47;;
3149;SDS011;32503;47.748;8.960;2023-08-17T02:18:48;5.27;;;4.97;;
3149;SDS011;32503;47.748;8.960;2023-08-17T02:21:15;5.03;;;4.73;;
3149;SDS011;32503;47.748;8.960;2023-08-17T02:23:42;6.77;;;4.77;;
3149;SDS011;32503;47.748;8.960;2023-08-17T02:26:09;5.60;;;5.13;;
3149;SDS011;32503;47.748;8.960;2023-08-17T02:28:36;5.33;;;5.10;;
3149;SDS011;32503;47.748;8.960;2023-08-17T02:31:05;5.43;;;5.10;;
3149;SDS011;32503;47.748;8.960;2023-08-17T02:33:32;4.93;;;4.67;;
3149;SDS011;32503;47.748;8.960;2023-08-17T02:35:59;6.40;;;5.97;;
3149;SDS011;32503;47.748;8.960;2023-08-17T02:38:26;5.40;;;5.20;;
3149;SDS011;32503;47.748;8.960;2023-08-17T02:40:54;5.57;;;5.17;;
3149;SDS011;32503;47.748;8.960;2023-08-17T02:43:21;4.97;;;4.67;;
3149;SDS011;32503;47.748;8.960;2023-08-17T02:45:48;5.30;;;4.80;;
3149;SDS011;32503;47.748;8.960;2023-08-17T02:48:16;6.00;;;5.60;;
3149;SDS011;32503;47.748;8.960;2023-08-17T02:50:43;4.97;;;4.70;;
3149;SDS011;32503;47.748;8.960;2023-08-17T02:53:11;5.90;;;5.53;;
3149;SDS011;32503;47.748;8.960;2023-08-17T02:55:38;5.17;;;4.87;;
3149;SDS011;32503;47.748;8.960;2023-08-17T02:58:05;5.13;;;4.90;;
3149;SDS011;32503;47.748;8.960;2023-08-17T03:00:32;5.03;;;4.83;;
3149;SDS011;32503;47.748;8.960;2023-08-17T03:02:59;4.47;;;4.17;;
3149;SDS011;32503;47.748;8.960;2023-08-17T03:05:27;5.30;;;4.90;;
3149;SDS011;32503;47.748;8.960;2023-08-17T03:07:55;5.40;;;5.07;;
3149;SDS011;32503;47.748;8.960;2023-08-17T03:10:22;5.70;;;5.27;;
3149;SDS011;32503;47.748;8.960;2023-08-17T03:12:50;4.87;;;4.67;;
3149;SDS011;32503;47.748;8.960;2023-08-17T03:15:17;4.70;;;4.50;;
3149;SDS011;32503;47.748;8.960;2023-08-17T03:17:44;5.20;;;4.87;;
3149;SDS011;32503;47.748;8.960;2023-08-17T03:20:11;5.20;;;4.90;;
3149;SDS011;32503;47.748;8.960;2023-08-17T03:22:40;5.07;;;4.83;;
3149;SDS011;32503;47.748;8.960;2023-08-17T03:25:07;4.87;;;4.57;;
3149;SDS011;32503;47.748;8.960;2023-08-17T03:27:35;4.40;;;4.20;;
3149;SDS011;32503;47.748;8.960;2023-08-17T03:30:02;5.00;;;4.80;;
3149;SDS011;32503;47.748;8.960;2023-08-17T03:32:31;5.70;;;5.33;;
3149;SDS011;32503;47.748;8.960;2023-08-17T03:34:58;5.60;;;5.30;;
3149;SDS011;32503;47.748;8.960;2023-08-17T03:37:25;5.80;;;5.50;;
3149;SDS011;32503;47.748;8.960;2023-08-17T03:39:54;5.20;;;4.90;;
3149;SDS011;32503;47.748;8.960;2023-08-17T03:42:21;5.00;;;4.70;;
3149;SDS011;32503;47.748;8.960;2023-08-17T03:44:48;5.90;;;5.40;;
3149;SDS011;32503;47.748;8.960;2023-08-17T03:47:15;6.17;;;5.77;;
3149;SDS011;32503;47.748;8.960;2023-08-17T03:49:42;5.43;;;4.87;;
3149;SDS011;32503;47.748;8.960;2023-08-17T03:52:10;6.13;;;5.80;;
3149;SDS011;32503;47.748;8.960;2023-08-17T03:54:37;5.63;;;5.33;;
3149;SDS011;32503;47.748;8.960;2023-08-17T03:57:05;5.87;;;5.57;;
3149;SDS011;32503;47.748;8.960;2023-08-17T03:59:33;5.73;;;5.43;;
3149;SDS011;32503;47.748;8.960;2023-08-17T04:02:00;5.20;;;4.90;;
3149;SDS011;32503;47.748;8.960;2023-08-17T04:04:27;5.50;;;5.10;;
3149;SDS011;32503;47.748;8.960;2023-08-17T04:06:54;6.13;;;5.80;;
3149;SDS011;32503;47.748;8.960;2023-08-17T04:09:21;5.63;;;5.20;;
3149;SDS011;32503;47.748;8.960;2023-08-17T04:11:48;5.70;;;5.37;;
3149;SDS011;32503;47.748;8.960;2023-08-17T04:14:17;5.97;;;5.57;;
3149;SDS011;32503;47.748;8.960;2023-08-17T04:16:44;6.33;;;5.93;;
3149;SDS011;32503;47.748;8.960;2023-08-17T04:19:11;6.40;;;5.90;;
3149;SDS011;32503;47.748;8.960;2023-08-17T04:21:38;6.93;;;6.37;;
3149;SDS011;32503;47.748;8.960;2023-08-17T04:24:05;4.93;;;4.73;;
3149;SDS011;32503;47.748;8.960;2023-08-17T04:26:32;6.03;;;5.63;;
3149;SDS011;32503;47.748;8.960;2023-08-17T04:28:59;5.07;;;4.77;;
3149;SDS011;32503;47.748;8.960;2023-08-17T04:31:28;6.57;;;6.17;;
3149;SDS011;32503;47.748;8.960;2023-08-17T04:33:55;7.20;;;6.70;;
3149;SDS011;32503;47.748;8.960;2023-08-17T04:36:22;5.63;;;5.33;;
3149;SDS011;32503;47.748;8.960;2023-08-17T04:38:49;5.93;;;5.53;;
3149;SDS011;32503;47.748;8.960;2023-08-17T04:41:16;5.60;;;5.40;;
3149;SDS011;32503;47.748;8.960;2023-08-17T04:43:43;7.10;;;6.50;;
3149;SDS011;32503;47.748;8.960;2023-08-17T04:46:11;6.43;;;6.00;;
3149;SDS011;32503;47.748;8.960;2023-08-17T04:48:40;6.13;;;5.83;;
3149;SDS011;32503;47.748;8.960;2023-08-17T04:51:07;5.33;;;5.03;;
3149;SDS011;32503;47.748;8.960;2023-08-17T04:53:34;6.20;;;5.80;;
3149;SDS011;32503;47.748;8.960;2023-08-17T04:56:02;6.30;;;5.77;;
3149;SDS011;32503;47.748;8.960;2023-08-17T04:58:30;6.07;;;5.77;;
3149;SDS011;32503;47.748;8.960;2023-08-17T05:00:58;6.30;;;5.90;;
3149;SDS011;32503;47.748;8.960;2023-08-17T05:03:25;5.70;;;5.40;;
3149;SDS011;32503;47.748;8.960;2023-08-17T05:05:54;5.07;;;4.80;;
3149;SDS011;32503;47.748;8.960;2023-08-17T05:08:21;5.23;;;4.93;;
3149;SDS011;32503;47.748;8.960;2023-08-17T05:10:48;6.37;;;5.87;;
3149;SDS011;32503;47.748;8.960;2023-08-17T05:13:15;6.10;;;5.70;;
3149;SDS011;32503;47.748;8.960;2023-08-17T05:15:42;6.47;;;6.00;;
3149;SDS011;32503;47.748;8.960;2023-08-17T05:18:10;6.53;;;6.00;;
3149;SDS011;32503;47.748;8.960;2023-08-17T05:20:37;5.77;;;5.27;;
3149;SDS011;32503;47.748;8.960;2023-08-17T05:23:05;5.40;;;5.07;;
3149;SDS011;32503;47.748;8.960;2023-08-17T05:25:33;5.73;;;5.43;;
3149;SDS011;32503;47.748;8.960;2023-08-17T05:28:00;6.60;;;6.17;;
3149;SDS011;32503;47.748;8.960;2023-08-17T05:30:27;6.43;;;5.83;;
3149;SDS011;32503;47.748;8.960;2023-08-17T05:32:54;5.43;;;5.13;;
3149;SDS011;32503;47.748;8.960;2023-08-17T05:35:21;6.20;;;5.90;;
3149;SDS011;32503;47.748;8.960;2023-08-17T05:37:48;5.87;;;5.57;;
3149;SDS011;32503;47.748;8.960;2023-08-17T05:40:17;5.53;;;5.23;;
3149;SDS011;32503;47.748;8.960;2023-08-17T05:42:44;4.83;;;4.63;;
3149;SDS011;32503;47.748;8.960;2023-08-17T05:45:11;5.60;;;5.30;;
3149;SDS011;32503;47.748;8.960;2023-08-17T05:47:38;5.40;;;5.10;;
3149;SDS011;32503;47.748;8.960;2023-08-17T05:50:06;5.77;;;5.40;;
3149;SDS011;32503;47.748;8.960;2023-08-17T05:52:34;7.83;;;7.23;;
3149;SDS011;32503;47.748;8.960;2023-08-17T05:55:01;5.37;;;4.97;;
3149;SDS011;32503;47.748;8.960;2023-08-17T05:57:29;5.03;;;4.63;;
3149;SDS011;32503;47.748;8.960;2023-08-17T05:59:56;5.33;;;5.03;;
3149;SDS011;32503;47.748;8.960;2023-08-17T06:02:24;4.87;;;4.67;;
3149;SDS011;32503;47.748;8.960;2023-08-17T06:04:51;4.73;;;4.50;;
3149;SDS011;32503;47.748;8.960;2023-08-17T06:07:18;5.50;;;5.30;;
3149;SDS011;32503;47.748;8.960;2023-08-17T06:09:45;6.43;;;5.80;;
3149;SDS011;32503;47.748;8.960;2023-08-17T06:12:12;5.53;;;5.33;;
3149;SDS011;32503;47.748;8.960;2023-08-17T06:14:40;6.10;;;5.70;;
3149;SDS011;32503;47.748;8.960;2023-08-17T06:17:08;5.60;;;5.30;;
3149;SDS011;32503;47.748;8.960;2023-08-17T06:19:35;5.73;;;5.43;;
3149;SDS011;32503;47.748;8.960;2023-08-17T06:22:02;6.50;;;6.00;;
3149;SDS011;32503;47.748;8.960;2023-08-17T06:24:29;5.73;;;5.27;;
3149;SDS011;32503;47.748;8.960;2023-08-17T06:26:56;6.27;;;5.80;;
3149;SDS011;32503;47.748;8.960;2023-08-17T06:29:23;5.43;;;5.03;;
3149;SDS011;32503;47.748;8.960;2023-08-17T06:31:51;5.90;;;5.50;;
3149;SDS011;32503;47.748;8.960;2023-08-17T06:34:20;6.63;;;6.23;;
3149;SDS011;32503;47.748;8.960;2023-08-17T06:36:56;5.23;;;5.00;;
3149;SDS011;32503;47.748;8.960;2023-08-17T06:39:25;5.33;;;5.03;;
3149;SDS011;32503;47.748;8.960;2023-08-17T06:41:53;6.00;;;5.70;;
3149;SDS011;32503;47.748;8.960;2023-08-17T06:44:20;5.80;;;5.50;;
3149;SDS011;32503;47.748;8.960;2023-08-17T06:46:47;5.37;;;5.07;;
3149;SDS011;32503;47.748;8.960;2023-08-17T06:49:16;5.97;;;5.67;;
3149;SDS011;32503;47.748;8.960;2023-08-17T06:51:43;5.40;;;5.10;;
3149;SDS011;32503;47.748;8.960;2023-08-17T06:54:10;7.90;;;7.30;;
3149;SDS011;32503;47.748;8.960;2023-08-17T06:56:37;9.20;;;7.30;;
3149;SDS011;32503;47.748;8.960;2023-08-17T06:59:04;6.53;;;5.97;;
3149;SDS011;32503;47.748;8.960;2023-08-17T07:01:32;6.07;;;5.60;;
3149;SDS011;32503;47.748;8.960;2023-08-17T07:03:59;6.23;;;5.80;;
3149;SDS011;32503;47.748;8.960;2023-08-17T07:06:27;5.67;;;5.37;;
3149;SDS011;32503;47.748;8.960;2023-08-17T07:08:54;6.07;;;5.77;;
3149;SDS011;32503;47.748;8.960;2023-08-17T07:11:22;5.80;;;5.50;;
3149;SDS011;32503;47.748;8.960;2023-08-17T07:13:49;5.43;;;5.23;;
3149;SDS011;32503;47.748;8.960;2023-08-17T07:16:16;5.63;;;5.43;;
3149;SDS011;32503;47.748;8.960;2023-08-17T07:18:43;5.80;;;5.50;;
3149;SDS011;32503;47.748;8.960;2023-08-17T07:21:10;5.90;;;5.47;;
3149;SDS011;32503;47.748;8.960;2023-08-17T07:23:38;5.60;;;5.30;;
3149;SDS011;32503;47.748;8.960;2023-08-17T07:26:06;5.80;;;5.50;;
3149;SDS011;32503;47.748;8.960;2023-08-17T07:28:33;5.90;;;5.60;;
3149;SDS011;32503;47.748;8.960;2023-08-17T07:31:00;5.80;;;5.37;;
3149;SDS011;32503;47.748;8.960;2023-08-17T07:33:27;5.93;;;5.53;;
3149;SDS011;32503;47.748;8.960;2023-08-17T07:35:54;6.00;;;5.70;;
3149;SDS011;32503;47.748;8.960;2023-08-17T07:38:23;5.93;;;5.53;;
3149;SDS011;32503;47.748;8.960;2023-08-17T07:40:52;5.60;;;5.40;;
3149;SDS011;32503;47.748;8.960;2023-08-17T07:43:19;6.10;;;5.67;;
3149;SDS011;32503;47.748;8.960;2023-08-17T07:45:51;5.50;;;5.20;;
3149;SDS011;32503;47.748;8.960;2023-08-17T07:48:20;5.20;;;4.83;;
3149;SDS011;32503;47.748;8.960;2023-08-17T07:50:48;6.03;;;5.70;;
3149;SDS011;32503;47.748;8.960;2023-08-17T07:53:16;6.30;;;5.83;;
3149;SDS011;32503;47.748;8.960;2023-08-17T07:55:43;5.60;;;5.30;;
3149;SDS011;32503;47.748;8.960;2023-08-17T07:58:12;5.93;;;5.63;;
3149;SDS011;32503;47.748;8.960;2023-08-17T08:00:39;5.60;;;5.30;;
3149;SDS011;32503;47.748;8.960;2023-08-17T08:03:06;5.13;;;4.83;;
3149;SDS011;32503;47.748;8.960;2023-08-17T08:05:33;6.17;;;5.90;;
3149;SDS011;32503;47.748;8.960;2023-08-17T08:08:00;6.67;;;6.33;;
3149;SDS011;32503;47.748;8.960;2023-08-17T08:10:27;6.07;;;5.67;;
3149;SDS011;32503;47.748;8.960;2023-08-17T08:12:55;6.17;;;5.63;;
3149;SDS011;32503;47.748;8.960;2023-08-17T08:15:23;5.70;;;5.40;;
3149;SDS011;32503;47.748;8.960;2023-08-17T08:17:50;5.47;;;5.27;;
3149;SDS011;32503;47.748;8.960;2023-08-17T08:20:17;5.50;;;5.20;;
3149;SDS011;32503;47.748;8.960;2023-08-17T08:22:45;5.73;;;5.40;;
3149;SDS011;32503;47.748;8.960;2023-08-17T08:25:12;5.93;;;5.40;;
3149;SDS011;32503;47.748;8.960;2023-08-17T08:27:39;6.37;;;5.80;;
3149;SDS011;32503;47.748;8.960;2023-08-17T08:30:06;5.70;;;5.23;;
3149;SDS011;32503;47.748;8.960;2023-08-17T08:32:35;5.80;;;5.40;;
3149;SDS011;32503;47.748;8.960;2023-08-17T08:35:03;5.50;;;5.20;;
3149;SDS011;32503;47.748;8.960;2023-08-17T08:37:31;5.50;;;5.30;;
3149;SDS011;32503;47.748;8.960;2023-08-17T08:39:58;5.30;;;5.10;;
3149;SDS011;32503;47.748;8.960;2023-08-17T08:42:25;5.20;;;4.90;;
3149;SDS011;32503;47.748;8.960;2023-08-17T08:44:52;4.93;;;4.70;;
3149;SDS011;32503;47.748;8.960;2023-08-17T08:47:20;4.73;;;4.53;;
3149;SDS011;32503;47.748;8.960;2023-08-17T08:49:53;5.30;;;5.10;;
3149;SDS011;32503;47.748;8.960;2023-08-17T08:52:28;4.40;;;4.20;;
3149;SDS011;32503;47.748;8.960;2023-08-17T08:55:03;4.50;;;4.30;;
3149;SDS011;32503;47.748;8.960;2023-08-17T08:57:37;4.90;;;4.07;;
3149;SDS011;32503;47.748;8.960;2023-08-17T09:00:07;4.97;;;4.67;;
3149;SDS011;32503;47.748;8.960;2023-08-17T09:02:35;4.67;;;4.47;;
3149;SDS011;32503;47.748;8.960;2023-08-17T09:05:04;5.30;;;5.00;;
3149;SDS011;32503;47.748;8.960;2023-08-17T09:07:35;5.67;;;5.30;;
3149;SDS011;32503;47.748;8.960;2023-08-17T09:10:03;4.40;;;4.20;;
3149;SDS011;32503;47.748;8.960;2023-08-17T09:12:31;4.97;;;4.77;;
3149;SDS011;32503;47.748;8.960;2023-08-17T09:14:59;5.47;;;5.07;;
3149;SDS011;32503;47.748;8.960;2023-08-17T09:17:26;5.10;;;4.90;;
3149;SDS011;32503;47.748;8.960;2023-08-17T09:19:54;6.17;;;5.70;;
3149;SDS011;32503;47.748;8.960;2023-08-17T09:22:25;4.30;;;4.00;;
3149;SDS011;32503;47.748;8.960;2023-08-17T09:25:07;4.60;;;4.30;;
3149;SDS011;32503;47.748;8.960;2023-08-17T09:27:35;4.10;;;3.90;;
3149;SDS011;32503;47.748;8.960;2023-08-17T09:30:03;4.60;;;4.40;;
3149;SDS011;32503;47.748;8.960;2023-08-17T09:32:32;4.50;;;4.30;;
3149;SDS011;32503;47.748;8.960;2023-08-17T09:35:00;4.40;;;4.20;;
3149;SDS011;32503;47.748;8.960;2023-08-17T09:37:30;3.50;;;3.40;;
3149;SDS011;32503;47.748;8.960;2023-08-17T09:39:57;4.23;;;4.13;;
3149;SDS011;32503;47.748;8.960;2023-08-17T09:42:25;4.03;;;3.83;;
3149;SDS011;32503;47.748;8.960;2023-08-17T09:44:52;5.00;;;4.80;;
3149;SDS011;32503;47.748;8.960;2023-08-17T09:47:20;4.00;;;3.90;;
3149;SDS011;32503;47.748;8.960;2023-08-17T09:49:48;4.17;;;3.97;;
3149;SDS011;32503;47.748;8.960;2023-08-17T09:52:16;4.50;;;4.30;;
3149;SDS011;32503;47.748;8.960;2023-08-17T09:54:46;4.20;;;3.90;;
3149;SDS011;32503;47.748;8.960;2023-08-17T09:57:13;4.10;;;3.90;;
3149;SDS011;32503;47.748;8.960;2023-08-17T09:59:42;3.97;;;3.77;;
3149;SDS011;32503;47.748;8.960;2023-08-17T10:02:18;4.07;;;3.77;;
3149;SDS011;32503;47.748;8.960;2023-08-17T10:04:49;4.10;;;3.90;;
3149;SDS011;32503;47.748;8.960;2023-08-17T10:07:18;4.53;;;4.33;;
3149;SDS011;32503;47.748;8.960;2023-08-17T10:09:50;3.63;;;3.53;;
3149;SDS011;32503;47.748;8.960;2023-08-17T10:12:26;4.33;;;4.13;;
3149;SDS011;32503;47.748;8.960;2023-08-17T10:14:59;3.87;;;3.67;;
3149;SDS011;32503;47.748;8.960;2023-08-17T10:17:34;4.17;;;3.97;;
3149;SDS011;32503;47.748;8.960;2023-08-17T10:20:06;4.40;;;4.20;;
3149;SDS011;32503;47.748;8.960;2023-08-17T10:22:36;4.30;;;4.10;;
3149;SDS011;32503;47.748;8.960;2023-08-17T10:25:12;4.00;;;3.80;;
3149;SDS011;32503;47.748;8.960;2023-08-17T10:27:39;4.63;;;4.27;;
3149;SDS011;32503;47.748;8.960;2023-08-17T10:30:08;4.73;;;4.33;;
3149;SDS011;32503;47.748;8.960;2023-08-17T10:32:36;4.57;;;4.20;;
3149;SDS011;32503;47.748;8.960;2023-08-17T10:35:06;4.37;;;4.20;;
3149;SDS011;32503;47.748;8.960;2023-08-17T10:37:34;4.53;;;4.10;;
3149;SDS011;32503;47.748;8.960;2023-08-17T10:40:02;4.87;;;4.63;;
3149;SDS011;32503;47.748;8.960;2023-08-17T10:42:33;4.10;;;3.90;;
3149;SDS011;32503;47.748;8.960;2023-08-17T10:45:01;3.90;;;3.70;;
3149;SDS011;32503;47.748;8.960;2023-08-17T10:47:50;4.30;;;4.10;;
3149;SDS011;32503;47.748;8.960;2023-08-17T10:50:44;4.17;;;3.97;;
3149;SDS011;32503;47.748;8.960;2023-08-17T10:53:36;4.37;;;4.17;;
3149;SDS011;32503;47.748;8.960;2023-08-17T10:56:07;4.10;;;3.90;;
3149;SDS011;32503;47.748;8.960;2023-08-17T10:58:40;4.73;;;4.50;;
3149;SDS011;32503;47.748;8.960;2023-08-17T11:01:09;4.20;;;3.90;;
3149;SDS011;32503;47.748;8.960;2023-08-17T11:03:39;4.10;;;3.80;;
3149;SDS011;32503;47.748;8.960;2023-08-17T11:06:13;3.90;;;3.70;;
3149;SDS011;32503;47.748;8.960;2023-08-17T11:08:53;3.83;;;3.63;;
3149;SDS011;32503;47.748;8.960;2023-08-17T11:11:21;4.07;;;3.87;;
3149;SDS011;32503;47.748;8.960;2023-08-17T11:13:52;4.23;;;4.10;;
3149;SDS011;32503;47.748;8.960;2023-08-17T11:16:20;4.80;;;4.60;;
3149;SDS011;32503;47.748;8.960;2023-08-17T11:18:48;4.90;;;4.70;;
3149;SDS011;32503;47.748;8.960;2023-08-17T11:21:16;4.47;;;4.23;;
3149;SDS011;32503;47.748;8.960;2023-08-17T11:23:43;3.77;;;3.67;;
3149;SDS011;32503;47.748;8.960;2023-08-17T11:26:11;4.27;;;4.13;;
3149;SDS011;32503;47.748;8.960;2023-08-17T11:28:38;4.50;;;4.30;;
3149;SDS011;32503;47.748;8.960;2023-08-17T11:31:08;4.57;;;4.37;;
3149;SDS011;32503;47.748;8.960;2023-08-17T11:33:36;4.47;;;4.27;;
3149;SDS011;32503;47.748;8.960;2023-08-17T11:36:06;5.53;;;5.23;;
3149;SDS011;32503;47.748;8.960;2023-08-17T11:38:35;5.23;;;5.03;;
3149;SDS011;32503;47.748;8.960;2023-08-17T11:41:04;5.37;;;5.07;;
3149;SDS011;32503;47.748;8.960;2023-08-17T11:43:33;6.10;;;5.03;;
3149;SDS011;32503;47.748;8.960;2023-08-17T11:46:01;6.00;;;5.40;;
3149;SDS011;32503;47.748;8.960;2023-08-17T11:48:31;4.60;;;4.30;;
3149;SDS011;32503;47.748;8.960;2023-08-17T11:50:59;4.77;;;4.57;;
3149;SDS011;32503;47.748;8.960;2023-08-17T11:53:32;5.50;;;5.20;;
3149;SDS011;32503;47.748;8.960;2023-08-17T11:56:00;5.77;;;5.37;;
3149;SDS011;32503;47.748;8.960;2023-08-17T11:58:40;5.43;;;4.93;;
3149;SDS011;32503;47.748;8.960;2023-08-17T12:01:09;5.20;;;5.00;;
3149;SDS011;32503;47.748;8.960;2023-08-17T12:03:39;5.03;;;4.83;;
3149;SDS011;32503;47.748;8.960;2023-08-17T12:06:07;4.90;;;4.70;;
3149;SDS011;32503;47.748;8.960;2023-08-17T12:08:34;5.43;;;5.13;;
3149;SDS011;32503;47.748;8.960;2023-08-17T12:11:02;5.70;;;5.43;;
3149;SDS011;32503;47.748;8.960;2023-08-17T12:13:30;5.17;;;4.97;;
3149;SDS011;32503;47.748;8.960;2023-08-17T12:15:59;5.33;;;5.13;;
3149;SDS011;32503;47.748;8.960;2023-08-17T12:18:26;4.97;;;4.77;;
3149;SDS011;32503;47.748;8.960;2023-08-17T12:20:55;5.13;;;4.93;;
3149;SDS011;32503;47.748;8.960;2023-08-17T12:23:22;5.57;;;5.17;;
3149;SDS011;32503;47.748;8.960;2023-08-17T12:25:52;4.30;;;4.10;;
3149;SDS011;32503;47.748;8.960;2023-08-17T12:28:20;5.27;;;5.00;;
3149;SDS011;32503;47.748;8.960;2023-08-17T12:30:55;4.83;;;4.53;;
3149;SDS011;32503;47.748;8.960;2023-08-17T12:33:25;5.10;;;4.90;;
3149;SDS011;32503;47.748;8.960;2023-08-17T12:35:52;3.10;;;3.00;;
3149;SDS011;32503;47.748;8.960;2023-08-17T12:38:21;3.73;;;3.30;;
3149;SDS011;32503;47.748;8.960;2023-08-17T12:40:50;3.00;;;2.90;;
3149;SDS011;32503;47.748;8.960;2023-08-17T12:43:17;3.30;;;3.13;;
3149;SDS011;32503;47.748;8.960;2023-08-17T12:45:44;3.93;;;3.60;;
3149;SDS011;32503;47.748;8.960;2023-08-17T12:48:11;3.20;;;2.90;;
3149;SDS011;32503;47.748;8.960;2023-08-17T12:50:38;3.50;;;3.30;;
3149;SDS011;32503;47.748;8.960;2023-08-17T12:53:06;3.10;;;3.00;;
3149;SDS011;32503;47.748;8.960;2023-08-17T12:55:34;3.20;;;3.00;;
3149;SDS011;32503;47.748;8.960;2023-08-17T12:58:01;2.80;;;2.53;;
3149;SDS011;32503;47.748;8.960;2023-08-17T13:00:28;3.23;;;2.97;;
3149;SDS011;32503;47.748;8.960;2023-08-17T13:02:55;2.23;;;2.13;;
3149;SDS011;32503;47.748;8.960;2023-08-17T13:05:22;2.50;;;2.30;;
3149;SDS011;32503;47.748;8.960;2023-08-17T13:07:50;2.47;;;2.37;;
3149;SDS011;32503;47.748;8.960;2023-08-17T13:10:18;2.83;;;2.60;;
3149;SDS011;32503;47.748;8.960;2023-08-17T13:12:45;2.00;;;1.90;;
3149;SDS011;32503;47.748;8.960;2023-08-17T13:15:13;2.40;;;2.30;;
3149;SDS011;32503;47.748;8.960;2023-08-17T13:17:40;2.53;;;2.40;;
3149;SDS011;32503;47.748;8.960;2023-08-17T13:20:08;2.23;;;2.13;;
3149;SDS011;32503;47.748;8.960;2023-08-17T13:22:36;3.00;;;2.33;;
3149;SDS011;32503;47.748;8.960;2023-08-17T13:25:04;4.70;;;2.50;;
3149;SDS011;32503;47.748;8.960;2023-08-17T13:27:33;2.60;;;2.40;;
3149;SDS011;32503;47.748;8.960;2023-08-17T13:30:00;2.30;;;2.10;;
3149;SDS011;32503;47.748;8.960;2023-08-17T13:32:27;2.63;;;2.53;;
3149;SDS011;32503;47.748;8.960;2023-08-17T13:34:55;3.90;;;3.40;;
3149;SDS011;32503;47.748;8.960;2023-08-17T13:37:22;8.43;;;7.60;;
3149;SDS011;32503;47.748;8.960;2023-08-17T13:39:49;3.33;;;3.13;;
3149;SDS011;32503;47.748;8.960;2023-08-17T13:42:16;2.40;;;2.20;;
3149;SDS011;32503;47.748;8.960;2023-08-17T13:44:44;3.00;;;2.70;;
3149;SDS011;32503;47.748;8.960;2023-08-17T13:47:12;2.73;;;2.53;;
3149;SDS011;32503;47.748;8.960;2023-08-17T13:49:39;2.80;;;2.60;;
3149;SDS011;32503;47.748;8.960;2023-08-17T13:52:06;2.77;;;2.67;;
3149;SDS011;32503;47.748;8.960;2023-08-17T13:54:34;2.57;;;2.30;;
3149;SDS011;32503;47.748;8.960;2023-08-17T13:57:01;2.57;;;2.37;;
3149;SDS011;32503;47.748;8.960;2023-08-17T13:59:28;2.60;;;2.40;;
3149;SDS011;32503;47.748;8.960;2023-08-17T14:01:57;3.20;;;3.00;;
3149;SDS011;32503;47.748;8.960;2023-08-17T14:04:24;3.43;;;3.17;;
3149;SDS011;32503;47.748;8.960;2023-08-17T14:06:51;3.07;;;2.87;;
3149;SDS011;32503;47.748;8.960;2023-08-17T14:09:18;3.03;;;2.83;;
3149;SDS011;32503;47.748;8.960;2023-08-17T14:11:45;3.00;;;2.90;;
3149;SDS011;32503;47.748;8.960;2023-08-17T14:14:12;3.60;;;3.30;;
3149;SDS011;32503;47.748;8.960;2023-08-17T14:16:40;2.80;;;2.70;;
3149;SDS011;32503;47.748;8.960;2023-08-17T14:19:09;3.53;;;3.23;;
3149;SDS011;32503;47.748;8.960;2023-08-17T14:21:36;3.40;;;3.20;;
3149;SDS011;32503;47.748;8.960;2023-08-17T14:24:03;3.20;;;2.73;;
3149;SDS011;32503;47.748;8.960;2023-08-17T14:26:33;3.03;;;2.87;;
3149;SDS011;32503;47.748;8.960;2023-08-17T14:29:00;3.10;;;2.90;;
3149;SDS011;32503;47.748;8.960;2023-08-17T14:31:28;3.30;;;3.10;;
3149;SDS011;32503;47.748;8.960;2023-08-17T14:33:55;2.70;;;2.60;;
3149;SDS011;32503;47.748;8.960;2023-08-17T14:36:23;3.07;;;2.87;;
3149;SDS011;32503;47.748;8.960;2023-08-17T14:38:50;4.10;;;3.80;;
3149;SDS011;32503;47.748;8.960;2023-08-17T14:41:17;2.77;;;2.67;;
3149;SDS011;32503;47.748;8.960;2023-08-17T14:43:44;3.40;;;3.20;;
3149;SDS011;32503;47.748;8.960;2023-08-17T14:46:11;2.83;;;2.67;;
3149;SDS011;32503;47.748;8.960;2023-08-17T14:48:39;2.87;;;2.67;;
3149;SDS011;32503;47.748;8.960;2023-08-17T14:51:06;6.00;;;3.50;;
3149;SDS011;32503;47.748;8.960;2023-08-17T14:53:34;3.27;;;3.17;;
3149;SDS011;32503;47.748;8.960;2023-08-17T14:56:01;3.70;;;3.40;;
3149;SDS011;32503;47.748;8.960;2023-08-17T14:58:28;3.37;;;3.17;;
3149;SDS011;32503;47.748;8.960;2023-08-17T15:00:56;3.80;;;3.53;;
3149;SDS011;32503;47.748;8.960;2023-08-17T15:03:23;4.60;;;4.40;;
3149;SDS011;32503;47.748;8.960;2023-08-17T15:05:50;4.20;;;4.00;;
3149;SDS011;32503;47.748;8.960;2023-08-17T15:08:17;4.47;;;4.20;;